createdAt,value
2023-01-08T00:01:18.651Z,-12.25
2023-01-08T00:03:45.926Z,-12.23
2023-01-08T00:06:16.540Z,-12.17
2023-01-08T00:08:44.111Z,-12.14
2023-01-08T00:11:13.964Z,-11.93
2023-01-08T00:13:41.773Z,-11.82
2023-01-08T00:16:14.420Z,-12.02
2023-01-08T00:18:41.775Z,-11.89
2023-01-08T00:21:09.071Z,-11.86
2023-01-08T00:23:36.978Z,-11.85
2023-01-08T00:26:06.830Z,-11.77
2023-01-08T00:28:34.955Z,-11.68
2023-01-08T00:31:07.120Z,-11.66
2023-01-08T00:33:35.711Z,-11.67
2023-01-08T00:36:11.388Z,-11.69
2023-01-08T00:38:39.054Z,-11.73
2023-01-08T00:41:06.572Z,-11.62
2023-01-08T00:43:34.562Z,-11.59
2023-01-08T00:46:01.782Z,-11.61
2023-01-08T00:48:29.258Z,-11.57
2023-01-08T00:50:56.380Z,-11.55
2023-01-08T00:53:24.081Z,-11.72
2023-01-08T00:55:51.246Z,-11.70
2023-01-08T00:58:18.442Z,-11.61
2023-01-08T01:00:45.526Z,-11.53
2023-01-08T01:03:12.614Z,-11.53
2023-01-08T01:05:39.886Z,-11.44
2023-01-08T01:08:06.879Z,-11.51
2023-01-08T01:10:34.305Z,-11.44
2023-01-08T01:13:01.401Z,-11.38
2023-01-08T01:15:28.554Z,-11.42
2023-01-08T01:17:55.852Z,-11.36
2023-01-08T01:20:23.991Z,-11.30
2023-01-08T01:22:51.446Z,-11.27
2023-01-08T01:25:19.641Z,-11.36
2023-01-08T01:27:46.735Z,-11.39
2023-01-08T01:30:14.522Z,-11.39
2023-01-08T01:32:41.538Z,-11.35
2023-01-08T01:35:09.052Z,-11.33
2023-01-08T01:37:36.365Z,-11.35
2023-01-08T01:40:04.131Z,-11.28
2023-01-08T01:42:40.030Z,-11.24
2023-01-08T01:45:23.128Z,-11.28
2023-01-08T01:47:57.826Z,-11.31
2023-01-08T01:50:38.414Z,-11.34
2023-01-08T01:53:22.281Z,-11.34
2023-01-08T01:55:50.861Z,-11.29
2023-01-08T01:58:29.728Z,-11.33
2023-01-08T02:01:01.132Z,-11.36
2023-01-08T02:03:33.935Z,-11.30
2023-01-08T02:06:11.034Z,-11.29
2023-01-08T02:09:01.313Z,-11.26
2023-01-08T02:11:34.777Z,-11.23
2023-01-08T02:14:12.111Z,-11.28
2023-01-08T02:17:01.215Z,-11.21
2023-01-08T02:19:40.791Z,-11.34
2023-01-08T02:22:36.673Z,-11.47
2023-01-08T02:25:18.883Z,-11.38
2023-01-08T02:27:49.511Z,-11.47
2023-01-08T02:30:19.081Z,-11.43
2023-01-08T02:32:46.452Z,-11.41
2023-01-08T02:35:14.194Z,-11.43
2023-01-08T02:37:42.401Z,-11.36
2023-01-08T02:40:40.199Z,-11.39
2023-01-08T02:43:20.976Z,-11.35
2023-01-08T02:45:53.802Z,-11.42
2023-01-08T02:48:34.236Z,-11.41
2023-01-08T02:51:08.891Z,-11.48
2023-01-08T02:53:43.346Z,-11.40
2023-01-08T02:56:27.845Z,-11.44
2023-01-08T02:58:58.274Z,-11.43
2023-01-08T03:01:28.061Z,-11.34
2023-01-08T03:04:09.668Z,-11.45
2023-01-08T03:06:38.543Z,-11.47
2023-01-08T03:09:06.391Z,-11.42
2023-01-08T03:11:59.622Z,-11.50
2023-01-08T03:14:36.624Z,-11.41
2023-01-08T03:17:13.357Z,-11.39
2023-01-08T03:19:49.420Z,-11.35
2023-01-08T03:22:18.415Z,-11.43
2023-01-08T03:24:50.278Z,-11.53
2023-01-08T03:27:21.692Z,-11.47
2023-01-08T03:29:52.666Z,-11.43
2023-01-08T03:32:22.309Z,-11.48
2023-01-08T03:34:51.982Z,-11.39
2023-01-08T03:37:26.397Z,-11.34
2023-01-08T03:40:01.227Z,-11.46
2023-01-08T03:42:32.595Z,-11.42
2023-01-08T03:45:00.695Z,-11.53
2023-01-08T03:47:30.843Z,-11.51
2023-01-08T03:50:02.040Z,-11.45
2023-01-08T03:52:32.350Z,-11.36
2023-01-08T03:54:59.592Z,-11.34
2023-01-08T03:57:26.726Z,-11.36
2023-01-08T03:59:54.049Z,-11.30
2023-01-08T04:02:21.244Z,-11.22
2023-01-08T04:04:48.764Z,-11.17
2023-01-08T04:07:16.945Z,-11.17
2023-01-08T04:09:44.046Z,-11.16
2023-01-08T04:12:11.021Z,-11.12
2023-01-08T04:14:38.244Z,-11.04
2023-01-08T04:17:05.408Z,-11.02
2023-01-08T04:19:32.566Z,-11.04
2023-01-08T04:21:59.729Z,-11.05
2023-01-08T04:24:26.759Z,-11.08
2023-01-08T04:26:53.992Z,-11.10
2023-01-08T04:29:21.017Z,-11.17
2023-01-08T04:31:48.130Z,-11.08
2023-01-08T04:34:15.171Z,-11.01
2023-01-08T04:36:42.255Z,-11.00
2023-01-08T04:39:11.395Z,-10.99
2023-01-08T04:41:38.748Z,-10.96
2023-01-08T04:44:05.854Z,-11.01
2023-01-08T04:46:32.994Z,-10.93
2023-01-08T04:49:00.477Z,-10.99
2023-01-08T04:51:27.688Z,-11.05
2023-01-08T04:53:54.729Z,-11.08
2023-01-08T04:56:21.718Z,-11.00
2023-01-08T04:58:48.742Z,-10.91
2023-01-08T05:01:22.299Z,-10.92
2023-01-08T05:03:54.444Z,-10.88
2023-01-08T05:06:21.523Z,-10.88
2023-01-08T05:08:48.712Z,-10.84
2023-01-08T05:11:15.962Z,-10.84
2023-01-08T05:13:43.260Z,-10.85
2023-01-08T05:16:10.437Z,-10.77
2023-01-08T05:18:37.606Z,-10.80
2023-01-08T05:21:05.747Z,-10.74
2023-01-08T05:23:34.779Z,-10.74
2023-01-08T05:26:04.130Z,-10.64
2023-01-08T05:28:31.983Z,-10.63
2023-01-08T05:30:59.343Z,-10.61
2023-01-08T05:33:26.853Z,-10.71
2023-01-08T05:35:53.932Z,-10.59
2023-01-08T05:38:21.024Z,-10.50
2023-01-08T05:40:48.080Z,-10.49
2023-01-08T05:43:15.141Z,-10.51
2023-01-08T05:45:42.234Z,-10.49
2023-01-08T05:48:09.306Z,-10.45
2023-01-08T05:50:36.639Z,-10.49
2023-01-08T05:53:07.748Z,-10.46
2023-01-08T05:55:35.480Z,-10.47
2023-01-08T05:58:03.837Z,-10.45
2023-01-08T06:00:32.054Z,-10.41
2023-01-08T06:02:59.256Z,-10.42
2023-01-08T06:05:26.644Z,-10.36
2023-01-08T06:07:53.678Z,-10.45
2023-01-08T06:10:20.696Z,-10.39
2023-01-08T06:12:47.839Z,-10.34
2023-01-08T06:15:15.126Z,-10.28
2023-01-08T06:17:42.310Z,-10.28
2023-01-08T06:20:10.036Z,-10.24
2023-01-08T06:22:37.488Z,-10.24
2023-01-08T06:25:04.878Z,-10.21
2023-01-08T06:27:31.895Z,-10.22
2023-01-08T06:29:59.119Z,-10.19
2023-01-08T06:32:26.134Z,-10.16
2023-01-08T06:34:53.146Z,-10.12
2023-01-08T06:37:20.185Z,-10.10
2023-01-08T06:39:47.450Z,-10.15
2023-01-08T06:42:14.463Z,-10.13
2023-01-08T06:44:41.429Z,-10.12
2023-01-08T06:47:08.456Z,-10.15
2023-01-08T06:49:35.500Z,-10.08
2023-01-08T06:52:02.552Z,-10.08
2023-01-08T06:54:29.557Z,-10.05
2023-01-08T06:56:56.533Z,-9.94
2023-01-08T06:59:23.498Z,-9.80
2023-01-08T07:01:51.144Z,-9.71
2023-01-08T07:04:19.232Z,-9.57
2023-01-08T07:06:46.687Z,-9.32
2023-01-08T07:09:15.228Z,-8.97
2023-01-08T07:11:42.659Z,-8.37
2023-01-08T07:14:09.898Z,-7.48
2023-01-08T07:16:36.928Z,-6.32
2023-01-08T07:19:04.255Z,-5.15
2023-01-08T07:21:31.546Z,-4.06
2023-01-08T07:23:59.683Z,-3.09
2023-01-08T07:26:27.864Z,-2.09
2023-01-08T07:28:55.022Z,-2.01
2023-01-08T07:31:22.116Z,-2.21
2023-01-08T07:33:49.303Z,-1.72
2023-01-08T07:36:17.935Z,-1.49
2023-01-08T07:38:45.000Z,-0.81
2023-01-08T07:41:13.418Z,0.06
2023-01-08T07:43:40.411Z,0.96
2023-01-08T07:46:07.576Z,1.55
2023-01-08T07:48:34.812Z,2.14
2023-01-08T07:51:07.005Z,2.46
2023-01-08T07:53:35.212Z,2.88
2023-01-08T07:56:08.360Z,3.29
2023-01-08T07:58:35.815Z,3.70
2023-01-08T08:01:03.528Z,4.21
2023-01-08T08:03:30.637Z,4.51
2023-01-08T08:06:00.769Z,3.86
2023-01-08T08:08:27.907Z,2.94
2023-01-08T08:10:54.948Z,2.08
2023-01-08T08:13:22.030Z,1.37
2023-01-08T08:15:49.174Z,1.77
2023-01-08T08:18:16.405Z,1.63
2023-01-08T08:20:43.505Z,1.90
2023-01-08T08:23:13.965Z,1.52
2023-01-08T08:25:42.510Z,0.90
2023-01-08T08:28:11.297Z,0.02
2023-01-08T08:30:42.156Z,-0.54
2023-01-08T08:33:10.450Z,-1.00
2023-01-08T08:35:37.850Z,-1.27
2023-01-08T08:38:05.523Z,-1.33
2023-01-08T08:40:32.780Z,-1.75
2023-01-08T08:43:02.690Z,-2.32
2023-01-08T08:45:29.765Z,-2.84
2023-01-08T08:47:57.104Z,-3.30
2023-01-08T08:50:24.667Z,-3.80
2023-01-08T08:52:51.701Z,-4.09
2023-01-08T08:55:19.111Z,-4.27
2023-01-08T08:57:47.203Z,-4.61
2023-01-08T09:00:15.047Z,-4.93
2023-01-08T09:02:42.684Z,-5.24
2023-01-08T09:05:10.196Z,-5.32
2023-01-08T09:07:38.088Z,-5.44
2023-01-08T09:10:05.640Z,-5.26
2023-01-08T09:12:32.638Z,-5.12
2023-01-08T09:14:59.652Z,-4.95
2023-01-08T09:17:26.864Z,-4.87
2023-01-08T09:19:53.878Z,-4.79
2023-01-08T09:22:21.039Z,-4.81
2023-01-08T09:24:48.085Z,-4.87
2023-01-08T09:27:15.610Z,-5.01
2023-01-08T09:29:42.728Z,-5.12
2023-01-08T09:32:10.011Z,-5.27
2023-01-08T09:34:37.225Z,-5.30
2023-01-08T09:37:05.762Z,-5.28
2023-01-08T09:39:33.377Z,-5.22
2023-01-08T09:42:05.814Z,-5.25
2023-01-08T09:44:39.279Z,-5.37
2023-01-08T09:47:18.209Z,-5.42
2023-01-08T09:49:47.888Z,-5.58
2023-01-08T09:52:16.165Z,-5.79
2023-01-08T09:54:43.385Z,-6.00
2023-01-08T09:57:15.872Z,-6.11
2023-01-08T09:59:44.221Z,-6.09
2023-01-08T10:02:23.322Z,-6.13
2023-01-08T10:04:59.089Z,-6.13
2023-01-08T10:07:28.730Z,-6.12
2023-01-08T10:09:56.506Z,-6.10
2023-01-08T10:12:29.312Z,-6.24
2023-01-08T10:15:06.250Z,-6.32
2023-01-08T10:17:42.130Z,-6.36
2023-01-08T10:20:24.372Z,-6.42
2023-01-08T10:22:59.792Z,-6.35
2023-01-08T10:25:28.836Z,-6.35
2023-01-08T10:28:02.907Z,-6.42
2023-01-08T10:30:40.295Z,-6.43
2023-01-08T10:33:15.027Z,-6.48
2023-01-08T10:35:43.467Z,-6.59
2023-01-08T10:38:34.092Z,-6.53
2023-01-08T10:41:04.971Z,-6.36
2023-01-08T10:43:36.191Z,-5.66
2023-01-08T10:46:07.603Z,-4.83
2023-01-08T10:48:40.691Z,-4.72
2023-01-08T10:51:24.382Z,-4.55
2023-01-08T10:53:52.703Z,-4.52
2023-01-08T10:56:31.121Z,-4.25
2023-01-08T10:58:58.320Z,-4.02
2023-01-08T11:01:29.039Z,-4.32
2023-01-08T11:04:01.760Z,-4.69
2023-01-08T11:06:37.314Z,-5.00
2023-01-08T11:09:22.604Z,-5.28
2023-01-08T11:11:50.062Z,-5.49
2023-01-08T11:14:24.418Z,-5.80
2023-01-08T11:16:51.678Z,-5.87
2023-01-08T11:19:27.857Z,-5.96
2023-01-08T11:21:56.141Z,-6.07
2023-01-08T11:24:28.893Z,-6.08
2023-01-08T11:27:16.975Z,-6.12
2023-01-08T11:30:13.480Z,-6.26
2023-01-08T11:32:46.563Z,-6.25
2023-01-08T11:35:21.108Z,-6.43
2023-01-08T11:37:58.263Z,-6.64
2023-01-08T11:40:37.126Z,-6.68
2023-01-08T11:43:38.453Z,-6.75
2023-01-08T11:46:11.489Z,-6.77
2023-01-08T11:48:53.744Z,-6.76
2023-01-08T11:51:45.342Z,-6.86
2023-01-08T11:54:22.866Z,-6.98
2023-01-08T11:57:17.334Z,-7.03
2023-01-08T12:00:02.054Z,-7.05
2023-01-08T12:02:51.070Z,-7.26
2023-01-08T12:05:41.583Z,-7.28
2023-01-08T12:08:31.374Z,-7.31
2023-01-08T12:11:03.888Z,-7.41
2023-01-08T12:13:49.594Z,-7.44
2023-01-08T12:16:26.011Z,-7.43
2023-01-08T12:18:55.944Z,-7.42
2023-01-08T12:21:28.529Z,-7.43
2023-01-08T12:24:20.813Z,-7.44
2023-01-08T12:26:54.587Z,-7.47
2023-01-08T12:29:56.960Z,-7.55
2023-01-08T12:32:36.441Z,-7.61
2023-01-08T12:35:25.552Z,-7.58
2023-01-08T12:38:02.723Z,-7.68
2023-01-08T12:41:11.144Z,-7.75
2023-01-08T12:43:48.549Z,-7.81
2023-01-08T12:46:17.230Z,-7.82
2023-01-08T12:48:49.710Z,-7.86
2023-01-08T12:51:24.762Z,-7.78
2023-01-08T12:54:10.386Z,-7.76
2023-01-08T12:56:50.695Z,-7.81
2023-01-08T12:59:36.519Z,-7.86
2023-01-08T13:02:34.612Z,-7.83
2023-01-08T13:05:29.909Z,-7.88
2023-01-08T13:08:00.520Z,-7.91
2023-01-08T13:10:49.315Z,-7.90
2023-01-08T13:13:31.354Z,-7.91
2023-01-08T13:16:19.459Z,-7.83
2023-01-08T13:18:56.999Z,-7.98
2023-01-08T13:21:51.606Z,-7.94
2023-01-08T13:24:18.614Z,-7.93
2023-01-08T13:26:45.730Z,-7.97
2023-01-08T13:29:38.806Z,-8.01
2023-01-08T13:32:42.163Z,-8.21
2023-01-08T13:35:15.002Z,-8.38
2023-01-08T13:37:47.123Z,-8.28
2023-01-08T13:40:36.637Z,-8.28
2023-01-08T13:43:06.570Z,-8.22
2023-01-08T13:45:33.962Z,-8.24
2023-01-08T13:48:02.165Z,-8.23
2023-01-08T13:50:30.711Z,-8.19
2023-01-08T13:53:05.326Z,-8.21
2023-01-08T13:55:36.904Z,-8.24
2023-01-08T13:58:30.908Z,-8.26
2023-01-08T14:00:59.539Z,-8.29
2023-01-08T14:03:35.228Z,-8.33
2023-01-08T14:06:21.154Z,-8.27
2023-01-08T14:08:56.842Z,-8.31
2023-01-08T14:11:29.147Z,-8.37
2023-01-08T14:13:56.995Z,-8.34
2023-01-08T14:16:24.582Z,-8.34
2023-01-08T14:18:52.759Z,-8.43
2023-01-08T14:21:23.383Z,-8.45
2023-01-08T14:23:52.830Z,-8.43
2023-01-08T14:26:40.771Z,-8.43
2023-01-08T14:29:16.204Z,-8.47
2023-01-08T14:31:54.469Z,-8.52
2023-01-08T14:34:27.277Z,-8.48
2023-01-08T14:36:55.911Z,-8.54
2023-01-08T14:39:35.611Z,-8.46
2023-01-08T14:42:41.709Z,-8.47
2023-01-08T14:45:26.734Z,-8.44
2023-01-08T14:48:18.610Z,-8.49
2023-01-08T14:51:04.484Z,-8.46
2023-01-08T14:53:36.883Z,-8.39
2023-01-08T14:56:06.352Z,-8.32
2023-01-08T14:58:41.964Z,-8.31
2023-01-08T15:01:21.677Z,-8.39
2023-01-08T15:03:50.384Z,-8.18
2023-01-08T15:06:29.254Z,-8.26
2023-01-08T15:08:56.792Z,-8.26
2023-01-08T15:11:31.438Z,-8.25
2023-01-08T15:13:58.980Z,-8.21
2023-01-08T15:16:33.677Z,-8.26
2023-01-08T15:19:19.478Z,-8.25
2023-01-08T15:21:48.584Z,-8.32
2023-01-08T15:24:40.762Z,-8.41
2023-01-08T15:27:11.161Z,-8.45
2023-01-08T15:29:50.154Z,-8.45
2023-01-08T15:32:17.177Z,-8.55
2023-01-08T15:34:45.303Z,-8.52
2023-01-08T15:37:13.413Z,-8.62
2023-01-08T15:39:40.584Z,-8.63
2023-01-08T15:42:42.379Z,-8.64
2023-01-08T15:45:17.744Z,-8.66
2023-01-08T15:47:44.834Z,-8.62
2023-01-08T15:50:12.911Z,-8.60
2023-01-08T15:52:43.045Z,-8.75
2023-01-08T15:55:19.192Z,-8.73
2023-01-08T15:57:46.531Z,-8.88
2023-01-08T16:00:18.786Z,-8.84
2023-01-08T16:02:48.015Z,-8.82
2023-01-08T16:05:17.834Z,-8.95
2023-01-08T16:07:46.327Z,-9.01
2023-01-08T16:10:15.536Z,-8.97
2023-01-08T16:12:45.671Z,-9.16
2023-01-08T16:15:14.826Z,-9.23
2023-01-08T16:17:42.890Z,-9.15
2023-01-08T16:20:12.068Z,-9.23
2023-01-08T16:22:39.681Z,-9.22
2023-01-08T16:25:07.998Z,-9.30
2023-01-08T16:27:35.967Z,-9.38
2023-01-08T16:30:03.144Z,-9.32
2023-01-08T16:32:31.465Z,-9.29
2023-01-08T16:34:59.067Z,-9.29
2023-01-08T16:37:27.814Z,-9.32
2023-01-08T16:39:55.335Z,-9.27
2023-01-08T16:42:22.688Z,-9.26
2023-01-08T16:44:50.217Z,-9.31
2023-01-08T16:47:17.467Z,-9.29
2023-01-08T16:49:44.944Z,-9.31
2023-01-08T16:52:12.788Z,-9.20
2023-01-08T16:54:40.584Z,-9.13
2023-01-08T16:57:08.266Z,-9.05
2023-01-08T16:59:35.997Z,-9.01
2023-01-08T17:02:03.561Z,-8.96
2023-01-08T17:04:31.267Z,-8.94
2023-01-08T17:06:58.580Z,-8.97
2023-01-08T17:09:26.581Z,-8.94
2023-01-08T17:11:54.526Z,-8.97
2023-01-08T17:14:21.712Z,-8.95
2023-01-08T17:16:49.358Z,-8.91
2023-01-08T17:19:17.458Z,-8.91
2023-01-08T17:21:46.101Z,-8.87
2023-01-08T17:24:13.497Z,-8.87
2023-01-08T17:26:41.343Z,-8.86
2023-01-08T17:29:08.845Z,-8.86
2023-01-08T17:31:40.322Z,-8.85
2023-01-08T17:34:11.737Z,-8.87
2023-01-08T17:36:38.846Z,-8.97
2023-01-08T17:39:06.472Z,-8.91
2023-01-08T17:41:54.271Z,-8.90
2023-01-08T17:44:21.843Z,-8.77
2023-01-08T17:46:49.355Z,-8.77
2023-01-08T17:49:18.020Z,-8.75
2023-01-08T17:51:53.965Z,-8.82
2023-01-08T17:54:22.634Z,-8.92
2023-01-08T17:56:51.176Z,-8.86
2023-01-08T17:59:18.975Z,-8.90
2023-01-08T18:01:47.312Z,-8.96
2023-01-08T18:04:16.229Z,-9.02
2023-01-08T18:06:44.557Z,-9.11
2023-01-08T18:09:12.891Z,-9.11
2023-01-08T18:11:42.940Z,-9.21
2023-01-08T18:14:15.060Z,-9.36
2023-01-08T18:17:12.569Z,-9.42
2023-01-08T18:19:40.369Z,-9.49
2023-01-08T18:22:07.819Z,-9.45
2023-01-08T18:24:35.171Z,-9.49
2023-01-08T18:27:02.980Z,-9.58
2023-01-08T18:29:32.892Z,-9.63
2023-01-08T18:32:00.372Z,-9.67
2023-01-08T18:34:27.637Z,-9.61
2023-01-08T18:36:54.981Z,-9.72
2023-01-08T18:39:25.189Z,-9.75
2023-01-08T18:42:13.931Z,-9.72
2023-01-08T18:44:41.116Z,-9.71
2023-01-08T18:47:08.682Z,-9.81
2023-01-08T18:49:36.194Z,-9.78
2023-01-08T18:52:06.759Z,-9.76
2023-01-08T18:54:35.378Z,-9.79
2023-01-08T18:57:02.871Z,-9.77
2023-01-08T18:59:29.929Z,-9.73
2023-01-08T19:01:57.212Z,-9.67
2023-01-08T19:04:24.489Z,-9.63
2023-01-08T19:06:51.638Z,-9.57
2023-01-08T19:09:18.966Z,-9.55
2023-01-08T19:11:47.129Z,-9.49
2023-01-08T19:14:14.445Z,-9.35
2023-01-08T19:16:48.426Z,-9.37
2023-01-08T19:19:15.607Z,-9.30
2023-01-08T19:21:42.868Z,-9.16
2023-01-08T19:24:10.012Z,-9.10
2023-01-08T19:26:39.123Z,-9.05
2023-01-08T19:29:07.659Z,-8.92
2023-01-08T19:31:34.985Z,-8.94
2023-01-08T19:34:05.686Z,-8.87
2023-01-08T19:36:34.292Z,-8.77
2023-01-08T19:39:01.786Z,-8.65
2023-01-08T19:41:47.577Z,-8.72
2023-01-08T19:44:14.782Z,-8.59
2023-01-08T19:46:42.004Z,-8.49
2023-01-08T19:49:09.769Z,-8.50
2023-01-08T19:51:36.964Z,-8.60
2023-01-08T19:54:04.362Z,-8.62
2023-01-08T19:56:31.414Z,-8.66
2023-01-08T19:58:58.776Z,-8.65
2023-01-08T20:01:28.310Z,-8.70
2023-01-08T20:03:56.712Z,-8.79
2023-01-08T20:06:30.003Z,-8.82
2023-01-08T20:08:59.678Z,-8.90
2023-01-08T20:11:28.380Z,-8.93
2023-01-08T20:13:56.518Z,-8.89
2023-01-08T20:16:24.621Z,-8.90
2023-01-08T20:18:56.797Z,-9.03
2023-01-08T20:21:24.325Z,-9.04
2023-01-08T20:23:59.761Z,-9.03
2023-01-08T20:26:28.697Z,-9.06
2023-01-08T20:28:56.890Z,-9.11
2023-01-08T20:31:26.405Z,-9.04
2023-01-08T20:33:53.473Z,-9.09
2023-01-08T20:36:22.619Z,-9.41
2023-01-08T20:38:54.712Z,-9.61
2023-01-08T20:41:22.120Z,-9.50
2023-01-08T20:43:49.447Z,-9.58
2023-01-08T20:46:16.739Z,-9.87
2023-01-08T20:48:48.357Z,-10.11
2023-01-08T20:51:16.162Z,-10.29
2023-01-08T20:53:43.184Z,-10.21
2023-01-08T20:56:12.787Z,-10.32
2023-01-08T20:58:43.867Z,-10.38
2023-01-08T21:01:22.728Z,-10.35
2023-01-08T21:03:54.260Z,-10.35
2023-01-08T21:06:23.280Z,-10.18
2023-01-08T21:08:53.343Z,-10.14
2023-01-08T21:11:21.276Z,-10.21
2023-01-08T21:13:49.043Z,-10.28
2023-01-08T21:16:20.865Z,-10.22
2023-01-08T21:18:50.502Z,-10.25
2023-01-08T21:21:29.928Z,-10.33
2023-01-08T21:23:57.555Z,-10.52
2023-01-08T21:26:24.961Z,-10.65
2023-01-08T21:28:53.168Z,-10.57
2023-01-08T21:31:22.910Z,-10.62
2023-01-08T21:33:50.185Z,-10.74
2023-01-08T21:36:20.448Z,-10.75
2023-01-08T21:38:48.090Z,-10.70
2023-01-08T21:41:37.205Z,-10.94
2023-01-08T21:44:29.588Z,-10.86
2023-01-08T21:46:59.351Z,-10.96
2023-01-08T21:49:27.787Z,-10.80
2023-01-08T21:52:13.489Z,-10.73
2023-01-08T21:54:40.912Z,-10.78
2023-01-08T21:57:09.497Z,-10.81
2023-01-08T21:59:37.332Z,-10.81
2023-01-08T22:02:05.403Z,-10.71
2023-01-08T22:04:32.812Z,-10.58
2023-01-08T22:06:59.938Z,-10.73
2023-01-08T22:09:26.961Z,-10.84
2023-01-08T22:11:56.108Z,-11.01
2023-01-08T22:14:23.240Z,-11.16
2023-01-08T22:16:50.253Z,-11.19
2023-01-08T22:19:17.730Z,-11.09
2023-01-08T22:21:45.641Z,-10.83
2023-01-08T22:24:12.865Z,-10.65
2023-01-08T22:26:39.860Z,-10.58
2023-01-08T22:29:07.228Z,-10.66
2023-01-08T22:31:34.730Z,-10.60
2023-01-08T22:34:01.758Z,-10.80
2023-01-08T22:36:28.874Z,-10.73
2023-01-08T22:38:56.050Z,-10.85
2023-01-08T22:41:24.670Z,-10.88
2023-01-08T22:43:58.650Z,-10.84
2023-01-08T22:46:25.823Z,-10.87
2023-01-08T22:48:53.305Z,-10.87
2023-01-08T22:51:27.540Z,-10.75
2023-01-08T22:53:55.604Z,-10.73
2023-01-08T22:56:23.120Z,-10.92
2023-01-08T22:58:50.614Z,-10.94
2023-01-08T23:01:21.651Z,-10.78
2023-01-08T23:03:53.358Z,-10.72
2023-01-08T23:06:22.380Z,-10.77
2023-01-08T23:08:50.836Z,-10.68
2023-01-08T23:11:19.828Z,-10.58
2023-01-08T23:13:47.427Z,-10.54
2023-01-08T23:16:16.986Z,-10.58
2023-01-08T23:18:44.210Z,-10.56
2023-01-08T23:21:13.960Z,-10.45
2023-01-08T23:23:41.171Z,-10.40
2023-01-08T23:26:14.481Z,-10.58
2023-01-08T23:28:41.485Z,-10.86
2023-01-08T23:31:10.555Z,-11.12
2023-01-08T23:33:37.653Z,-11.30
2023-01-08T23:36:05.317Z,-11.35
2023-01-08T23:38:32.881Z,-11.43
2023-01-08T23:41:00.149Z,-11.44
2023-01-08T23:43:27.233Z,-11.70
2023-01-08T23:45:55.802Z,-12.06
2023-01-08T23:48:22.839Z,-12.09
2023-01-08T23:50:49.878Z,-12.07
2023-01-08T23:53:16.929Z,-12.30
2023-01-08T23:55:44.015Z,-12.31
2023-01-08T23:58:11.056Z,-12.57
